createdAt,value
2018-07-26T00:00:13.263Z,61.05
2018-07-26T00:02:41.645Z,59.63
2018-07-26T00:05:09.725Z,59.10
2018-07-26T00:07:37.787Z,58.96
2018-07-26T00:10:07.263Z,59.52
2018-07-26T00:12:35.460Z,60.09
2018-07-26T00:15:03.724Z,60.02
2018-07-26T00:17:31.855Z,59.89
2018-07-26T00:20:00.076Z,60.00
2018-07-26T00:22:28.155Z,60.40
2018-07-26T00:24:56.255Z,61.69
2018-07-26T00:27:24.415Z,61.54
2018-07-26T00:29:52.475Z,65.16
2018-07-26T00:32:20.560Z,69.87
2018-07-26T00:34:48.628Z,71.46
2018-07-26T00:37:16.771Z,72.58
2018-07-26T00:39:44.926Z,75.54
2018-07-26T00:42:12.999Z,74.08
2018-07-26T00:44:41.104Z,71.68
2018-07-26T00:47:09.183Z,75.09
2018-07-26T00:49:37.270Z,74.50
2018-07-26T00:52:05.342Z,68.72
2018-07-26T00:54:33.415Z,65.07
2018-07-26T00:57:01.518Z,64.48
2018-07-26T00:59:29.744Z,63.12
2018-07-26T01:01:57.986Z,63.20
2018-07-26T01:04:26.087Z,62.95
2018-07-26T01:06:54.159Z,62.96
2018-07-26T01:09:22.224Z,63.51
2018-07-26T01:11:50.316Z,62.84
2018-07-26T01:14:18.427Z,63.02
2018-07-26T01:16:46.516Z,62.98
2018-07-26T01:19:14.586Z,63.10
2018-07-26T01:21:42.697Z,62.48
2018-07-26T01:24:10.777Z,63.04
2018-07-26T01:26:38.854Z,62.96
2018-07-26T01:29:06.955Z,62.35
2018-07-26T01:31:35.090Z,62.55
2018-07-26T01:34:03.167Z,62.26
2018-07-26T01:36:31.331Z,62.96
2018-07-26T01:38:59.423Z,62.83
2018-07-26T01:41:27.517Z,63.46
2018-07-26T01:44:06.959Z,62.72
2018-07-26T01:46:35.051Z,62.62
2018-07-26T01:49:03.163Z,63.08
2018-07-26T01:51:31.246Z,64.33
2018-07-26T01:53:59.399Z,65.04
2018-07-26T01:56:27.591Z,66.37
2018-07-26T01:58:55.654Z,68.42
2018-07-26T02:01:23.741Z,69.32
2018-07-26T02:03:51.844Z,70.09
2018-07-26T02:06:20.022Z,71.30
2018-07-26T02:08:48.134Z,71.76
2018-07-26T02:11:16.222Z,71.81
2018-07-26T02:13:44.372Z,69.15
2018-07-26T02:16:12.463Z,67.27
2018-07-26T02:18:40.762Z,65.72
2018-07-26T02:21:08.863Z,65.49
2018-07-26T02:23:37.032Z,65.89
2018-07-26T02:26:05.155Z,65.44
2018-07-26T02:28:33.231Z,65.10
2018-07-26T02:31:01.441Z,65.51
2018-07-26T02:33:29.486Z,65.37
2018-07-26T02:35:57.602Z,64.17
2018-07-26T02:38:25.688Z,64.31
2018-07-26T02:40:53.759Z,63.83
2018-07-26T02:43:21.864Z,63.54
2018-07-26T02:45:49.900Z,63.69
2018-07-26T02:48:17.993Z,63.59
2018-07-26T02:50:46.095Z,63.66
2018-07-26T02:53:14.262Z,63.71
2018-07-26T02:55:42.339Z,63.25
2018-07-26T02:58:10.423Z,63.78
2018-07-26T03:00:38.501Z,63.99
2018-07-26T03:03:06.580Z,64.21
2018-07-26T03:05:34.679Z,64.63
2018-07-26T03:08:02.783Z,64.53
2018-07-26T03:10:30.867Z,63.96
2018-07-26T03:12:58.954Z,64.15
2018-07-26T03:15:27.027Z,63.72
2018-07-26T03:17:55.107Z,63.75
2018-07-26T03:20:23.182Z,63.65
2018-07-26T03:22:51.289Z,63.39
2018-07-26T03:25:19.347Z,63.57
2018-07-26T03:27:47.412Z,63.39
2018-07-26T03:30:15.490Z,63.58
2018-07-26T03:32:43.576Z,63.12
2018-07-26T03:35:11.653Z,63.09
2018-07-26T03:37:39.776Z,63.25
2018-07-26T03:40:07.863Z,63.36
2018-07-26T03:42:35.971Z,63.24
2018-07-26T03:45:04.101Z,62.86
2018-07-26T03:47:32.190Z,63.31
2018-07-26T03:50:00.263Z,63.37
2018-07-26T03:52:28.383Z,63.72
2018-07-26T03:54:56.448Z,63.50
2018-07-26T03:57:24.539Z,63.83
2018-07-26T03:59:52.638Z,63.48
2018-07-26T04:02:20.784Z,63.36
2018-07-26T04:04:48.859Z,63.31
2018-07-26T04:07:16.986Z,63.12
2018-07-26T04:09:45.082Z,63.42
2018-07-26T04:12:13.151Z,62.95
2018-07-26T04:14:41.272Z,63.31
2018-07-26T04:17:09.359Z,63.26
2018-07-26T04:19:37.435Z,63.50
2018-07-26T04:22:05.547Z,63.90
2018-07-26T04:24:33.623Z,63.92
2018-07-26T04:27:01.742Z,63.51
2018-07-26T04:29:29.839Z,62.92
2018-07-26T04:31:58.007Z,63.10
2018-07-26T04:34:26.042Z,63.01
2018-07-26T04:36:54.179Z,63.51
2018-07-26T04:39:22.327Z,62.96
2018-07-26T04:41:50.414Z,62.73
2018-07-26T04:44:18.475Z,62.60
2018-07-26T04:46:46.561Z,62.54
2018-07-26T04:49:14.666Z,62.82
2018-07-26T04:51:42.798Z,62.22
2018-07-26T04:54:10.883Z,61.79
2018-07-26T04:56:39.001Z,62.24
2018-07-26T04:59:07.075Z,62.24
2018-07-26T05:01:35.182Z,62.04
2018-07-26T05:04:03.349Z,61.81
2018-07-26T05:06:31.543Z,61.53
2018-07-26T05:08:59.625Z,61.63
2018-07-26T05:11:27.718Z,61.65
2018-07-26T05:13:55.838Z,61.08
2018-07-26T05:16:23.938Z,60.82
2018-07-26T05:18:52.157Z,60.70
2018-07-26T05:21:20.257Z,60.36
2018-07-26T05:23:48.367Z,60.16
2018-07-26T05:26:16.427Z,60.02
2018-07-26T05:28:44.674Z,60.64
2018-07-26T05:31:12.747Z,59.84
2018-07-26T05:33:40.862Z,59.61
2018-07-26T05:36:08.928Z,59.21
2018-07-26T05:38:37.035Z,59.33
2018-07-26T05:41:05.108Z,59.60
2018-07-26T05:43:33.208Z,58.81
2018-07-26T05:46:01.300Z,58.70
2018-07-26T05:48:29.404Z,58.08
2018-07-26T05:50:57.533Z,57.00
2018-07-26T05:53:25.663Z,57.33
2018-07-26T05:55:53.689Z,57.14
2018-07-26T05:58:21.838Z,57.37
2018-07-26T06:00:49.905Z,56.75
2018-07-26T06:03:18.015Z,56.18
2018-07-26T06:05:46.110Z,56.19
2018-07-26T06:08:14.214Z,56.52
2018-07-26T06:10:42.290Z,55.97
2018-07-26T06:13:10.451Z,55.82
2018-07-26T06:15:38.555Z,55.81
2018-07-26T06:18:06.637Z,55.78
2018-07-26T06:20:34.762Z,56.11
2018-07-26T06:23:02.910Z,56.29
2018-07-26T06:25:31.071Z,54.82
2018-07-26T06:27:59.154Z,54.99
2018-07-26T06:30:27.228Z,55.54
2018-07-26T06:32:57.792Z,54.78
2018-07-26T06:35:26.003Z,54.39
2018-07-26T06:37:54.972Z,54.28
2018-07-26T06:40:23.124Z,53.49
2018-07-26T06:42:51.269Z,54.34
2018-07-26T06:45:19.448Z,54.67
2018-07-26T06:47:47.820Z,54.84
2018-07-26T06:50:16.414Z,53.99
2018-07-26T06:52:45.124Z,53.39
2018-07-26T06:55:13.300Z,53.22
2018-07-26T06:57:41.550Z,52.52
2018-07-26T07:00:10.172Z,52.97
2018-07-26T07:02:38.626Z,53.56
2018-07-26T07:05:06.722Z,53.17
2018-07-26T07:07:34.814Z,52.00
2018-07-26T07:10:02.944Z,52.50
2018-07-26T07:12:31.136Z,52.09
2018-07-26T07:14:59.391Z,52.86
2018-07-26T07:17:27.668Z,52.33
2018-07-26T07:19:55.793Z,52.47
2018-07-26T07:22:23.959Z,52.73
2018-07-26T07:24:52.053Z,52.55
2018-07-26T07:27:20.151Z,51.44
2018-07-26T07:29:48.244Z,51.18
2018-07-26T07:32:16.379Z,52.09
2018-07-26T07:34:44.510Z,50.57
2018-07-26T07:37:12.698Z,51.22
2018-07-26T07:39:40.803Z,50.57
2018-07-26T07:42:08.882Z,49.63
2018-07-26T07:44:37.277Z,50.90
2018-07-26T07:47:05.692Z,50.53
2018-07-26T07:49:33.808Z,50.32
2018-07-26T07:52:01.973Z,49.92
2018-07-26T07:54:30.126Z,48.96
2018-07-26T07:56:58.199Z,50.16
2018-07-26T07:59:26.313Z,50.29
2018-07-26T08:01:54.362Z,49.54
2018-07-26T08:04:22.547Z,48.12
2018-07-26T08:06:50.923Z,47.76
2018-07-26T08:09:18.999Z,48.37
2018-07-26T08:11:47.080Z,47.91
2018-07-26T08:14:15.151Z,47.49
2018-07-26T08:16:43.351Z,47.22
2018-07-26T08:19:11.473Z,45.62
2018-07-26T08:21:39.579Z,46.21
2018-07-26T08:24:07.723Z,46.17
2018-07-26T08:26:35.771Z,45.97
2018-07-26T08:29:03.865Z,45.76
2018-07-26T08:31:31.931Z,45.50
2018-07-26T08:34:00.024Z,46.11
2018-07-26T08:36:28.141Z,44.75
2018-07-26T08:38:56.302Z,45.92
2018-07-26T08:41:24.414Z,45.19
2018-07-26T08:43:52.498Z,43.91
2018-07-26T08:46:20.558Z,44.98
2018-07-26T08:48:48.650Z,43.80
2018-07-26T08:51:16.790Z,43.80
2018-07-26T08:53:45.111Z,42.75
2018-07-26T08:56:16.564Z,42.32
2018-07-26T08:58:45.098Z,42.99
2018-07-26T09:01:14.310Z,42.45
2018-07-26T09:03:42.384Z,41.85
2018-07-26T09:06:11.060Z,42.71
2018-07-26T09:11:42.329Z,41.08
2018-07-26T09:14:11.701Z,40.91
2018-07-26T09:16:39.787Z,39.48
2018-07-26T09:19:08.292Z,41.51
2018-07-26T09:21:36.442Z,40.99
2018-07-26T09:24:06.691Z,41.14
2018-07-26T09:26:34.747Z,41.12
2018-07-26T09:29:02.899Z,40.58
2018-07-26T09:31:30.951Z,40.32
2018-07-26T09:33:59.087Z,40.32
2018-07-26T09:36:28.238Z,38.67
2018-07-26T09:38:56.675Z,38.45
2018-07-26T09:41:24.952Z,38.29
2018-07-26T09:43:53.023Z,37.80
2018-07-26T09:46:21.444Z,36.85
2018-07-26T09:48:49.527Z,38.06
2018-07-26T09:51:17.570Z,37.00
2018-07-26T09:53:45.880Z,36.86
2018-07-26T09:56:13.940Z,36.18
2018-07-26T09:58:42.046Z,36.31
2018-07-26T10:01:16.331Z,36.30
2018-07-26T10:03:44.408Z,36.34
2018-07-26T10:06:12.500Z,35.38
2018-07-26T10:08:40.579Z,36.22
2018-07-26T10:11:08.664Z,34.80
2018-07-26T10:13:36.808Z,35.77
2018-07-26T10:16:04.978Z,35.56
2018-07-26T10:18:33.036Z,35.22
2018-07-26T10:21:01.184Z,37.04
2018-07-26T10:23:29.406Z,35.98
2018-07-26T10:25:57.511Z,34.87
2018-07-26T10:28:26.823Z,34.17
2018-07-26T10:30:54.894Z,34.12
2018-07-26T10:33:23.083Z,35.64
2018-07-26T10:35:51.155Z,34.88
2018-07-26T10:38:19.197Z,33.37
2018-07-26T10:40:47.261Z,33.17
2018-07-26T10:43:15.450Z,33.69
2018-07-26T10:45:43.500Z,33.86
2018-07-26T10:48:11.606Z,34.36
2018-07-26T10:50:39.692Z,34.32
2018-07-26T10:53:07.748Z,34.33
2018-07-26T10:55:35.825Z,33.70
2018-07-26T10:58:03.877Z,33.96
2018-07-26T11:00:31.995Z,33.68
2018-07-26T11:03:00.104Z,33.52
2018-07-26T11:05:28.259Z,32.87
2018-07-26T11:07:56.322Z,32.78
2018-07-26T11:10:24.402Z,34.44
2018-07-26T11:12:52.459Z,32.95
2018-07-26T11:15:25.906Z,33.27
2018-07-26T11:17:54.039Z,32.54
2018-07-26T11:20:22.186Z,32.04
2018-07-26T11:22:50.371Z,32.92
2018-07-26T11:25:18.527Z,32.31
2018-07-26T11:27:46.908Z,31.61
2018-07-26T11:30:14.994Z,31.67
2018-07-26T11:32:43.054Z,31.85
2018-07-26T11:35:11.872Z,31.81
2018-07-26T11:37:39.966Z,31.78
2018-07-26T11:40:08.016Z,31.39
2018-07-26T11:42:36.071Z,30.87
2018-07-26T11:45:04.892Z,30.70
2018-07-26T11:47:32.950Z,31.62
2018-07-26T11:50:01.106Z,30.67
2018-07-26T11:52:29.238Z,31.16
2018-07-26T11:54:57.288Z,31.09
2018-07-26T11:57:25.453Z,30.43
2018-07-26T11:59:53.577Z,30.60
2018-07-26T12:02:21.755Z,31.19
2018-07-26T12:04:49.780Z,31.38
2018-07-26T12:07:17.831Z,30.39
2018-07-26T12:09:45.886Z,30.13
2018-07-26T12:12:13.964Z,30.60
2018-07-26T12:14:42.096Z,30.87
2018-07-26T12:17:10.427Z,30.60
2018-07-26T12:19:39.047Z,30.59
2018-07-26T12:22:07.575Z,29.92
2018-07-26T12:24:35.646Z,30.82
2018-07-26T12:27:04.022Z,31.34
2018-07-26T12:29:32.210Z,31.02
2018-07-26T12:32:00.444Z,30.90
2018-07-26T12:34:28.493Z,31.76
2018-07-26T12:36:58.438Z,30.77
2018-07-26T12:39:26.664Z,30.90
2018-07-26T12:41:54.778Z,30.04
2018-07-26T12:44:23.817Z,29.74
2018-07-26T12:46:52.240Z,28.76
2018-07-26T12:49:21.900Z,29.50
2018-07-26T12:51:50.257Z,28.83
2018-07-26T12:54:19.157Z,28.17
2018-07-26T12:56:47.491Z,28.52
2018-07-26T12:59:16.087Z,27.67
2018-07-26T13:01:44.983Z,27.26
2018-07-26T13:04:14.765Z,27.56
2018-07-26T13:06:44.496Z,27.88
2018-07-26T13:09:17.527Z,27.77
2018-07-26T13:11:45.816Z,28.35
2018-07-26T13:14:13.979Z,28.08
2018-07-26T13:16:42.211Z,27.18
2018-07-26T13:19:10.599Z,26.26
2018-07-26T13:21:40.306Z,26.87
2018-07-26T13:24:09.695Z,26.74
2018-07-26T13:26:37.892Z,26.41
2018-07-26T13:29:07.058Z,26.72
2018-07-26T13:31:35.888Z,26.72
2018-07-26T13:34:04.118Z,25.86
2018-07-26T13:36:32.299Z,26.38
2018-07-26T13:39:01.779Z,26.46
2018-07-26T13:41:30.738Z,25.43
2018-07-26T13:43:59.928Z,25.76
2018-07-26T13:46:28.055Z,26.45
2018-07-26T13:48:56.990Z,26.86
2018-07-26T13:51:26.744Z,26.98
2018-07-26T13:53:55.608Z,26.82
2018-07-26T13:56:23.826Z,27.01
2018-07-26T13:58:56.319Z,27.39
2018-07-26T14:01:24.484Z,26.57
2018-07-26T14:03:53.051Z,26.03
2018-07-26T14:06:21.143Z,26.29
2018-07-26T14:08:55.140Z,26.50
2018-07-26T14:11:23.591Z,27.84
2018-07-26T14:13:52.709Z,27.05
2018-07-26T14:16:20.966Z,27.49
2018-07-26T14:18:49.073Z,26.18
2018-07-26T14:21:18.108Z,26.31
2018-07-26T14:23:46.440Z,26.93
2018-07-26T14:26:14.817Z,26.93
2018-07-26T14:28:42.988Z,27.46
2018-07-26T14:31:12.486Z,26.36
2018-07-26T14:33:41.430Z,27.22
2018-07-26T14:36:10.341Z,26.59
2018-07-26T14:38:38.395Z,27.28
2018-07-26T14:41:06.570Z,27.42
2018-07-26T14:43:34.664Z,27.46
2018-07-26T14:46:02.715Z,27.22
2018-07-26T14:48:30.787Z,27.17
2018-07-26T14:50:58.959Z,26.45
2018-07-26T14:53:27.358Z,26.32
2018-07-26T14:55:55.438Z,26.81
2018-07-26T14:58:23.558Z,24.99
2018-07-26T15:00:51.616Z,25.63
2018-07-26T15:03:19.780Z,25.97
2018-07-26T15:05:50.169Z,26.18
2018-07-26T15:08:20.291Z,25.93
2018-07-26T15:10:53.301Z,26.12
2018-07-26T15:13:21.791Z,26.21
2018-07-26T15:15:50.093Z,25.73
2018-07-26T15:18:19.092Z,25.95
2018-07-26T15:20:47.278Z,25.49
2018-07-26T15:23:15.944Z,26.43
2018-07-26T15:25:44.210Z,26.50
2018-07-26T15:28:12.448Z,26.54
2018-07-26T15:30:41.328Z,26.41
2018-07-26T15:33:09.533Z,26.56
2018-07-26T15:35:37.654Z,26.85
2018-07-26T15:38:05.997Z,26.71
2018-07-26T15:40:34.557Z,25.83
2018-07-26T15:43:03.180Z,26.31
2018-07-26T15:45:31.371Z,25.89
2018-07-26T15:47:59.514Z,25.48
2018-07-26T15:50:27.905Z,25.79
2018-07-26T15:52:56.682Z,25.33
2018-07-26T15:55:26.043Z,25.08
2018-07-26T15:57:54.166Z,23.92
2018-07-26T16:00:22.302Z,24.01
2018-07-26T16:02:51.154Z,24.74
2018-07-26T16:05:19.249Z,24.17
2018-07-26T16:07:47.267Z,25.15
2018-07-26T16:10:15.321Z,25.46
2018-07-26T16:12:43.371Z,24.94
2018-07-26T16:15:11.793Z,24.87
2018-07-26T16:17:40.074Z,24.04
2018-07-26T16:20:09.123Z,24.52
2018-07-26T16:22:37.187Z,23.73
2018-07-26T16:25:06.339Z,25.12
2018-07-26T16:27:34.415Z,27.19
2018-07-26T16:30:02.559Z,27.14
2018-07-26T16:32:30.674Z,27.50
2018-07-26T16:34:58.720Z,27.50
2018-07-26T16:37:26.794Z,28.71
2018-07-26T16:39:54.910Z,30.38
2018-07-26T16:42:22.967Z,32.72
2018-07-26T16:44:51.131Z,30.75
2018-07-26T16:47:19.186Z,34.21
2018-07-26T16:49:47.281Z,31.31
2018-07-26T16:52:15.369Z,30.28
2018-07-26T16:54:43.435Z,29.28
2018-07-26T16:57:11.516Z,29.89
2018-07-26T16:59:39.612Z,30.80
2018-07-26T17:02:07.695Z,29.89
2018-07-26T17:04:36.728Z,29.82
2018-07-26T17:07:04.853Z,30.34
2018-07-26T17:09:33.107Z,30.99
2018-07-26T17:12:01.241Z,31.28
2018-07-26T17:14:29.323Z,29.74
2018-07-26T17:16:57.391Z,29.90
2018-07-26T17:19:25.470Z,27.16
2018-07-26T17:21:53.533Z,26.63
2018-07-26T17:24:21.617Z,26.82
2018-07-26T17:26:49.690Z,27.38
2018-07-26T17:29:17.815Z,27.00
2018-07-26T17:31:45.891Z,25.36
2018-07-26T17:34:13.959Z,25.76
2018-07-26T17:36:42.033Z,27.50
2018-07-26T17:39:11.262Z,25.59
2018-07-26T17:41:39.491Z,27.03
2018-07-26T17:44:07.582Z,27.87
2018-07-26T17:46:35.759Z,30.17
2018-07-26T17:49:03.895Z,27.37
2018-07-26T17:51:32.206Z,28.16
2018-07-26T17:54:00.280Z,29.27
2018-07-26T17:56:28.450Z,27.87
2018-07-26T17:58:56.523Z,27.24
2018-07-26T18:01:24.620Z,25.93
2018-07-26T18:03:52.857Z,26.77
2018-07-26T18:06:20.912Z,25.78
2018-07-26T18:08:48.983Z,25.68
2018-07-26T18:11:17.052Z,26.00
2018-07-26T18:13:45.167Z,25.73
2018-07-26T18:16:13.166Z,26.20
2018-07-26T18:18:41.291Z,25.92
2018-07-26T18:21:09.342Z,25.37
2018-07-26T18:23:38.408Z,25.49
2018-07-26T18:26:06.932Z,26.35
2018-07-26T18:28:35.022Z,25.48
2018-07-26T18:31:03.455Z,26.43
2018-07-26T18:33:31.673Z,25.95
2018-07-26T18:35:59.752Z,26.76
2018-07-26T18:38:27.923Z,27.02
2018-07-26T18:40:56.000Z,26.43
2018-07-26T18:43:24.417Z,26.66
2018-07-26T18:45:52.537Z,27.20
2018-07-26T18:48:20.785Z,27.47
2018-07-26T18:50:48.907Z,26.62
2018-07-26T18:53:18.250Z,27.68
2018-07-26T18:55:46.366Z,27.21
2018-07-26T18:58:15.242Z,27.51
2018-07-26T19:00:44.023Z,27.97
2018-07-26T19:03:12.225Z,27.75
2018-07-26T19:05:41.212Z,27.73
2018-07-26T19:08:09.975Z,27.65
2018-07-26T19:10:39.427Z,28.54
2018-07-26T19:13:07.554Z,28.08
2018-07-26T19:15:35.760Z,29.12
2018-07-26T19:18:04.188Z,29.06
2018-07-26T19:20:33.034Z,29.22
2018-07-26T19:23:02.260Z,29.33
2018-07-26T19:25:32.267Z,29.03
2018-07-26T19:28:00.763Z,29.10
2018-07-26T19:30:30.131Z,28.71
2018-07-26T19:32:59.120Z,29.30
2018-07-26T19:35:54.280Z,29.55
2018-07-26T19:38:22.423Z,29.83
2018-07-26T19:40:50.560Z,29.77
2018-07-26T19:43:19.972Z,29.68
2018-07-26T19:45:48.123Z,30.22
2018-07-26T19:48:16.588Z,30.88
2018-07-26T19:50:44.893Z,30.31
2018-07-26T19:53:13.079Z,31.50
2018-07-26T19:55:41.305Z,31.98
2018-07-26T19:58:10.903Z,31.78
2018-07-26T20:00:39.414Z,32.21
2018-07-26T20:03:08.749Z,31.79
2018-07-26T20:05:37.212Z,31.20
2018-07-26T20:08:05.380Z,31.13
2018-07-26T20:10:33.541Z,31.03
2018-07-26T20:13:01.646Z,31.06
2018-07-26T20:15:30.538Z,31.21
2018-07-26T20:17:59.890Z,30.97
2018-07-26T20:20:28.017Z,30.39
2018-07-26T20:22:56.142Z,30.89
2018-07-26T20:25:25.727Z,30.87
2018-07-26T20:27:53.810Z,32.24
2018-07-26T20:30:21.952Z,30.87
2018-07-26T20:32:50.342Z,31.66
2018-07-26T20:35:19.004Z,31.39
2018-07-26T20:37:47.395Z,31.76
2018-07-26T20:40:15.573Z,32.47
2018-07-26T20:42:43.937Z,32.49
2018-07-26T20:45:14.244Z,33.73
2018-07-26T20:47:42.357Z,33.59
2018-07-26T20:50:11.491Z,33.24
2018-07-26T20:52:39.738Z,33.08
2018-07-26T20:55:08.090Z,33.46
2018-07-26T20:57:37.387Z,34.20
2018-07-26T21:00:08.856Z,33.53
2018-07-26T21:02:36.977Z,34.33
2018-07-26T21:05:06.501Z,34.08
2018-07-26T21:07:34.666Z,34.23
2018-07-26T21:10:03.931Z,33.79
2018-07-26T21:12:32.424Z,33.51
2018-07-26T21:15:00.513Z,33.88
2018-07-26T21:17:29.108Z,34.37
2018-07-26T21:19:58.199Z,34.68
2018-07-26T21:22:27.055Z,34.22
2018-07-26T21:24:55.496Z,35.28
2018-07-26T21:27:23.563Z,34.85
2018-07-26T21:29:51.732Z,35.18
2018-07-26T21:32:19.815Z,35.22
2018-07-26T21:34:48.368Z,36.05
2018-07-26T21:37:16.589Z,35.29
2018-07-26T21:39:44.826Z,38.32
2018-07-26T21:42:13.037Z,36.08
2018-07-26T21:44:42.197Z,35.98
2018-07-26T21:47:10.449Z,36.05
2018-07-26T21:49:39.745Z,35.37
2018-07-26T21:52:07.858Z,37.03
2018-07-26T21:54:35.986Z,36.69
2018-07-26T21:57:05.046Z,35.91
2018-07-26T21:59:33.551Z,36.71
2018-07-26T22:02:01.970Z,36.56
2018-07-26T22:04:30.036Z,38.13
2018-07-26T22:06:58.183Z,38.57
2018-07-26T22:09:26.603Z,40.31
2018-07-26T22:11:55.667Z,41.01
2018-07-26T22:14:24.891Z,41.19
2018-07-26T22:16:53.114Z,42.08
2018-07-26T22:19:21.472Z,41.57
2018-07-26T22:21:49.672Z,40.94
2018-07-26T22:24:17.795Z,41.74
2018-07-26T22:26:46.781Z,42.27
2018-07-26T22:29:14.892Z,42.99
2018-07-26T22:31:42.993Z,43.17
2018-07-26T22:34:11.117Z,43.75
2018-07-26T22:36:39.342Z,43.61
2018-07-26T22:39:09.428Z,43.59
2018-07-26T22:41:38.404Z,44.17
2018-07-26T22:44:06.465Z,43.51
2018-07-26T22:46:34.515Z,43.76
2018-07-26T22:49:02.589Z,44.68
2018-07-26T22:51:30.676Z,45.24
2018-07-26T22:53:58.753Z,43.00
2018-07-26T22:56:26.811Z,43.41
2018-07-26T22:58:55.015Z,43.78
2018-07-26T23:01:23.143Z,44.53
2018-07-26T23:03:51.212Z,46.29
2018-07-26T23:06:20.251Z,46.90
2018-07-26T23:08:48.329Z,48.29
2018-07-26T23:11:16.400Z,48.51
2018-07-26T23:13:44.447Z,47.78
2018-07-26T23:16:12.510Z,48.34
2018-07-26T23:18:40.576Z,48.36
2018-07-26T23:21:08.720Z,48.93
2018-07-26T23:23:36.782Z,45.65
2018-07-26T23:26:04.848Z,45.83
2018-07-26T23:28:32.898Z,47.31
2018-07-26T23:31:00.974Z,46.47
2018-07-26T23:33:29.045Z,47.57
2018-07-26T23:35:57.139Z,49.15
2018-07-26T23:38:25.193Z,49.28
2018-07-26T23:40:53.260Z,49.60
2018-07-26T23:43:21.415Z,49.68
2018-07-26T23:45:49.484Z,50.62
2018-07-26T23:48:17.899Z,51.15
2018-07-26T23:50:47.347Z,51.81
2018-07-26T23:53:15.431Z,52.41
2018-07-26T23:55:43.497Z,53.34
2018-07-26T23:58:11.575Z,52.83
